Stations météo

Publicité
Valencia Airport, Espagne (2008284): Température de l'air & dewpoint: 14.04.2019 23:00:00 - 20.04.2019 23:00:00 (CEST)Valencia Airport, Espagne (2008284): Vitesse du vent: 14.04.2019 23:00:00 - 20.04.2019 23:00:00 (CEST)Valencia Airport, Espagne (2008284): Direction du vent: 14.04.2019 23:00:00 - 20.04.2019 23:00:00 (CEST)Valencia Airport, Espagne (2008284): visibility: 14.04.2019 23:00:00 - 20.04.2019 23:00:00 (CEST)
Date & Time tt [°C] td [°C] ff [km/h] ff [knt] dd vv [km]
20.04.2019 23:00:00 - - - - - -
20.04.2019 22:00:00 15,0 7,0 18 10 NE 10
20.04.2019 21:00:00 16,0 7,0 24 13 NNE 10
20.04.2019 20:00:00 16,0 7,0 24 13 NNE 10
20.04.2019 19:00:00 16,0 7,0 24 13 NE 10
20.04.2019 18:00:00 17,0 7,0 26 14 NE 10
20.04.2019 17:00:00 16,0 8,0 26 14 NNE 10
20.04.2019 16:00:00 15,0 9,0 24 13 NNE 10
20.04.2019 15:00:00 15,0 9,0 28 15 NE 10
20.04.2019 14:00:00 15,0 10,0 37 20 NE 9
20.04.2019 13:00:00 15,0 10,0 35 19 NE 9
20.04.2019 12:00:00 15,0 9,0 46 25 NNE 10
20.04.2019 11:00:00 16,0 9,0 41 22 NE 10
20.04.2019 10:00:00 16,0 8,0 46 25 NE 10
20.04.2019 09:00:00 17,0 7,0 41 22 NE 10
20.04.2019 08:00:00 17,0 7,0 42 23 NE 10
20.04.2019 07:00:00 16,0 7,0 31 17 NE 10
20.04.2019 06:00:00 16,0 8,0 28 15 ENE 10
20.04.2019 05:00:00 16,0 8,0 28 15 NE 10
20.04.2019 04:00:00 16,0 8,0 31 17 NE 10
20.04.2019 03:00:00 16,0 9,0 31 17 NE 10
20.04.2019 02:00:00 16,0 10,0 37 20 NE 10
20.04.2019 01:00:00 16,0 10,0 31 17 ENE 10
20.04.2019 00:00:00 16,0 11,0 39 21 NE 10
19.04.2019 23:00:00 15,0 12,0 41 22 NE 7
19.04.2019 22:00:00 15,0 12,0 39 21 NE 6
19.04.2019 21:00:00 15,0 13,0 37 20 NE 5
19.04.2019 20:00:00 15,0 13,0 39 21 NE 2,5
19.04.2019 19:00:00 15,0 13,0 39 21 NE 7
19.04.2019 18:00:00 15,0 13,0 35 19 ENE 4,5
19.04.2019 17:00:00 14,0 13,0 39 21 NE 2,6
19.04.2019 16:00:00 14,0 13,0 37 20 NE 1,7
19.04.2019 15:00:00 14,0 14,0 35 19 NE 1,7
19.04.2019 14:00:00 15,0 14,0 39 21 NE 2,5
19.04.2019 13:00:00 15,0 14,0 35 19 ENE 1,7
19.04.2019 12:00:00 15,0 14,0 31 17 E 1,8
19.04.2019 11:00:00 15,0 14,0 24 13 ENE 1,8
19.04.2019 10:00:00 13,0 12,0 11 6 NNW 10
19.04.2019 09:00:00 13,0 12,0 9 5 NNW 10
19.04.2019 08:00:00 14,0 13,0 8 4 N 10
19.04.2019 07:00:00 14,0 13,0 8 4 NW 10
19.04.2019 06:00:00 14,0 13,0 8 4 NW 10
19.04.2019 05:00:00 13,0 13,0 8 4 W 8
19.04.2019 04:00:00 13,0 13,0 5 3 W 5
19.04.2019 03:00:00 13,0 13,0 0 0 N 7
19.04.2019 02:00:00 13,0 12,0 0 0 N 7
19.04.2019 01:00:00 13,0 12,0 9 5 SW 7
19.04.2019 00:00:00 13,0 12,0 2 1 SW 7
18.04.2019 23:00:00 12,0 12,0 16 9 N 6
18.04.2019 22:00:00 12,0 11,0 15 8 NW 2,5
18.04.2019 21:00:00 12,0 11,0 18 10 N 3,5
18.04.2019 20:00:00 15,0 14,0 13 7 - 4,5
18.04.2019 19:00:00 15,0 14,0 37 20 NE 3,0
18.04.2019 18:00:00 14,0 13,0 37 20 NE 5
18.04.2019 17:00:00 14,0 13,0 35 19 NE 4,0
18.04.2019 16:00:00 14,0 13,0 31 17 NE 3,0
18.04.2019 15:00:00 15,0 13,0 31 17 NE 4,0
18.04.2019 14:00:00 16,0 12,0 41 22 NE 10
18.04.2019 13:00:00 15,0 12,0 31 17 NE 10
18.04.2019 12:00:00 16,0 11,0 29 16 NE 10
18.04.2019 11:00:00 16,0 12,0 26 14 NE 10
18.04.2019 10:00:00 16,0 12,0 29 16 ENE 10
18.04.2019 09:00:00 15,0 12,0 31 17 NE 10
18.04.2019 08:00:00 15,0 11,0 24 13 NE 10
18.04.2019 07:00:00 15,0 10,0 11 6 ENE 10
18.04.2019 06:00:00 14,0 11,0 8 4 ESE 10
18.04.2019 05:00:00 14,0 11,0 2 1 - 10
18.04.2019 04:00:00 13,0 11,0 4 2 - 10
18.04.2019 03:00:00 13,0 11,0 8 4 NNW 10
18.04.2019 02:00:00 14,0 11,0 8 4 WNW 10
18.04.2019 01:00:00 15,0 12,0 8 4 N 10
18.04.2019 00:00:00 15,0 12,0 11 6 NNE 10
17.04.2019 23:00:00 16,0 12,0 11 6 NE 10
17.04.2019 22:00:00 15,0 12,0 13 7 ENE 10
17.04.2019 21:00:00 15,0 12,0 15 8 ENE 10
17.04.2019 20:00:00 16,0 12,0 15 8 E 10
17.04.2019 19:00:00 16,0 11,0 16 9 E 10
17.04.2019 18:00:00 17,0 11,0 16 9 E 10
17.04.2019 17:00:00 17,0 11,0 18 10 E 10
17.04.2019 16:00:00 18,0 11,0 21 11 E 10
17.04.2019 15:00:00 18,0 12,0 18 10 E 10
17.04.2019 14:00:00 18,0 12,0 21 11 E 10
17.04.2019 13:00:00 19,0 11,0 18 10 E 10
17.04.2019 12:00:00 18,0 10,0 9 5 ENE 10
17.04.2019 11:00:00 17,0 10,0 9 5 NE 10
17.04.2019 10:00:00 15,0 10,0 4 2 - 10
17.04.2019 09:00:00 14,0 10,0 8 4 NNW 10
17.04.2019 08:00:00 13,0 11,0 8 4 NNW 10
17.04.2019 07:00:00 13,0 11,0 8 4 NW 10
17.04.2019 06:00:00 13,0 11,0 8 4 NW 10
17.04.2019 05:00:00 13,0 11,0 8 4 NW 10
17.04.2019 04:00:00 13,0 11,0 8 4 NW 10
17.04.2019 03:00:00 13,0 11,0 4 2 - 10
17.04.2019 02:00:00 14,0 11,0 5 3 NNE 10
17.04.2019 01:00:00 15,0 12,0 8 4 NE 10
17.04.2019 00:00:00 15,0 12,0 11 6 ENE 10
16.04.2019 23:00:00 15,0 12,0 11 6 E 10
16.04.2019 22:00:00 15,0 12,0 11 6 E 10
16.04.2019 21:00:00 16,0 12,0 13 7 E 10
16.04.2019 20:00:00 16,0 12,0 13 7 E 10
16.04.2019 19:00:00 18,0 11,0 15 8 ENE 10
16.04.2019 18:00:00 19,0 10,0 16 9 E 10
16.04.2019 17:00:00 19,0 10,0 15 8 E 10
16.04.2019 16:00:00 19,0 11,0 18 10 E 10
16.04.2019 15:00:00 19,0 11,0 13 7 E 10
16.04.2019 14:00:00 18,0 12,0 15 8 E 10
16.04.2019 13:00:00 18,0 12,0 16 9 E 10
16.04.2019 12:00:00 18,0 11,0 11 6 E 10
16.04.2019 11:00:00 17,0 11,0 11 6 E 10
16.04.2019 10:00:00 16,0 11,0 8 4 E 10
16.04.2019 09:00:00 14,0 10,0 5 3 W 10
16.04.2019 08:00:00 10,0 9,0 0 0 N 10
16.04.2019 07:00:00 12,0 10,0 8 4 NNW 10
16.04.2019 06:00:00 12,0 10,0 5 3 N 10
16.04.2019 05:00:00 11,0 10,0 5 3 W 10
16.04.2019 04:00:00 12,0 10,0 8 4 W 10
16.04.2019 03:00:00 14,0 10,0 5 3 NW 10
16.04.2019 02:00:00 15,0 10,0 4 2 WNW 10
16.04.2019 01:00:00 15,0 10,0 8 4 N 10
16.04.2019 00:00:00 16,0 10,0 11 6 NNE 10
15.04.2019 23:00:00 16,0 11,0 9 5 ENE 10
15.04.2019 22:00:00 16,0 11,0 13 7 NE 10
15.04.2019 21:00:00 16,0 11,0 11 6 ENE 10
15.04.2019 20:00:00 16,0 11,0 15 8 E 10
15.04.2019 19:00:00 17,0 11,0 16 9 E 10
15.04.2019 18:00:00 18,0 11,0 21 11 E 10
15.04.2019 17:00:00 18,0 11,0 22 12 E 10
15.04.2019 16:00:00 19,0 10,0 24 13 E 10
15.04.2019 15:00:00 19,0 11,0 24 13 E 10
15.04.2019 14:00:00 18,0 10,0 24 13 E 10
15.04.2019 13:00:00 19,0 11,0 21 11 ENE 10
15.04.2019 12:00:00 19,0 11,0 21 11 E 10
15.04.2019 11:00:00 18,0 11,0 13 7 NNE 10
15.04.2019 10:00:00 16,0 12,0 5 3 - 10
15.04.2019 09:00:00 15,0 12,0 8 4 NNW 9
15.04.2019 08:00:00 13,0 11,0 8 4 NW 10
15.04.2019 07:00:00 14,0 11,0 4 2 - 10
15.04.2019 06:00:00 15,0 12,0 13 7 NE 10
15.04.2019 05:00:00 15,0 13,0 16 9 ENE 9
15.04.2019 04:00:00 15,0 13,0 11 6 ENE 10
15.04.2019 03:00:00 15,0 12,0 5 3 ESE 10
15.04.2019 02:00:00 15,0 12,0 8 4 ESE 10
15.04.2019 01:00:00 16,0 11,0 8 4 ESE 10
15.04.2019 00:00:00 17,0 11,0 8 4 E 10
14.04.2019 23:00:00 19,0 10,0 8 4 ENE 10

tt = Température de l'air
td = dewpoint
ff = Vitesse du vent
dd = Direction du vent
vv = visibility

stations d'obs. à proximité